createdAt,value
2019-05-13T00:02:13.349Z,99.90
2019-05-13T00:04:44.199Z,99.90
2019-05-13T00:07:14.116Z,99.90
2019-05-13T00:09:44.336Z,99.90
2019-05-13T00:12:14.193Z,99.90
2019-05-13T00:14:44.403Z,99.90
2019-05-13T00:17:14.716Z,99.90
2019-05-13T00:19:44.538Z,99.90
2019-05-13T00:22:14.395Z,99.90
2019-05-13T00:24:44.470Z,99.90
2019-05-13T00:27:14.259Z,99.90
2019-05-13T00:29:44.702Z,99.90
2019-05-13T00:32:14.805Z,99.90
2019-05-13T00:34:44.685Z,99.90
2019-05-13T00:37:14.803Z,99.90
2019-05-13T00:39:44.918Z,99.90
2019-05-13T00:42:14.693Z,99.90
2019-05-13T00:44:44.923Z,99.90
2019-05-13T00:47:14.774Z,99.90
2019-05-13T00:49:44.592Z,99.90
2019-05-13T00:52:14.461Z,99.90
2019-05-13T00:54:44.340Z,99.90
2019-05-13T00:57:14.111Z,99.90
2019-05-13T00:59:44.457Z,99.90
2019-05-13T01:02:14.525Z,99.90
2019-05-13T01:04:44.346Z,99.90
2019-05-13T01:07:25.339Z,99.90
2019-05-13T01:09:45.896Z,99.90
2019-05-13T01:12:15.811Z,99.90
2019-05-13T01:14:45.636Z,99.90
2019-05-13T01:17:15.769Z,99.90
2019-05-13T01:19:45.546Z,99.90
2019-05-13T01:22:15.293Z,99.90
2019-05-13T01:24:45.559Z,99.90
2019-05-13T01:27:15.329Z,99.90
2019-05-13T01:29:45.091Z,99.90
2019-05-13T01:32:14.985Z,99.90
2019-05-13T01:34:45.109Z,99.90
2019-05-13T01:37:14.900Z,99.90
2019-05-13T01:39:44.829Z,99.90
2019-05-13T01:42:14.626Z,99.90
2019-05-13T01:44:44.475Z,99.90
2019-05-13T01:47:14.332Z,99.90
2019-05-13T01:49:44.421Z,99.90
2019-05-13T01:52:14.189Z,99.90
2019-05-13T01:54:44.352Z,99.90
2019-05-13T01:57:14.371Z,99.90
2019-05-13T01:59:44.489Z,99.90
2019-05-13T02:02:14.390Z,99.90
2019-05-13T02:04:44.346Z,99.90
2019-05-13T02:07:14.518Z,99.90
2019-05-13T02:09:44.796Z,99.90
2019-05-13T02:12:14.582Z,99.90
2019-05-13T02:14:44.657Z,99.90
2019-05-13T02:17:14.793Z,99.90
2019-05-13T02:19:44.566Z,99.90
2019-05-13T02:22:14.730Z,99.90
2019-05-13T02:24:44.854Z,99.90
2019-05-13T02:27:14.878Z,99.90
2019-05-13T02:29:44.648Z,99.90
2019-05-13T02:32:15.039Z,99.90
2019-05-13T02:34:44.849Z,99.90
2019-05-13T02:37:14.593Z,99.90
2019-05-13T02:39:44.704Z,99.90
2019-05-13T02:42:14.470Z,99.90
2019-05-13T02:44:44.241Z,99.90
2019-05-13T02:47:14.128Z,99.90
2019-05-13T02:49:44.187Z,99.90
2019-05-13T02:52:13.941Z,99.90
2019-05-13T02:54:43.823Z,99.90
2019-05-13T02:57:13.609Z,99.90
2019-05-13T02:59:43.710Z,99.90
2019-05-13T03:02:13.645Z,99.90
2019-05-13T03:04:43.744Z,99.90
2019-05-13T03:07:13.883Z,99.90
2019-05-13T03:09:43.805Z,99.90
2019-05-13T03:12:13.891Z,99.90
2019-05-13T03:14:48.082Z,99.90
2019-05-13T03:17:22.430Z,99.90
2019-05-13T03:19:53.214Z,99.90
2019-05-13T03:22:23.266Z,99.90
2019-05-13T03:24:53.528Z,99.90
2019-05-13T03:27:25.205Z,99.90
2019-05-13T03:29:54.717Z,99.90
2019-05-13T03:32:28.649Z,99.90
2019-05-13T03:34:57.146Z,99.90
2019-05-13T03:37:27.586Z,99.90
2019-05-13T03:39:58.927Z,99.90
2019-05-13T03:42:33.464Z,99.90
2019-05-13T03:45:03.733Z,99.90
2019-05-13T03:47:36.437Z,99.90
2019-05-13T03:50:07.239Z,99.90
2019-05-13T03:52:37.141Z,99.90
2019-05-13T03:55:07.145Z,99.90
2019-05-13T03:57:37.217Z,99.90
2019-05-13T04:00:07.526Z,99.90
2019-05-13T04:02:37.579Z,99.90
2019-05-13T04:05:07.613Z,99.90
2019-05-13T04:07:37.479Z,99.90
2019-05-13T04:10:08.270Z,99.90
2019-05-13T04:12:38.525Z,99.90
2019-05-13T04:15:08.524Z,99.90
2019-05-13T04:17:38.391Z,99.90
2019-05-13T04:20:12.377Z,99.90
2019-05-13T04:22:42.539Z,99.90
2019-05-13T04:25:12.782Z,99.90
2019-05-13T04:27:43.099Z,99.90
2019-05-13T04:30:13.686Z,99.90
2019-05-13T04:32:44.381Z,99.90
2019-05-13T04:35:14.400Z,99.90
2019-05-13T04:37:45.355Z,99.90
2019-05-13T04:40:23.095Z,99.90
2019-05-13T04:42:54.382Z,99.90
2019-05-13T04:45:26.950Z,99.90
2019-05-13T04:47:56.786Z,99.90
2019-05-13T04:50:26.590Z,99.90
2019-05-13T04:52:56.925Z,99.90
2019-05-13T04:55:26.803Z,99.90
2019-05-13T04:57:56.684Z,99.90
2019-05-13T05:01:08.878Z,99.90
2019-05-13T05:03:46.461Z,99.90
2019-05-13T05:06:33.317Z,99.90
2019-05-13T05:09:28.870Z,99.90
2019-05-13T05:12:58.857Z,99.90
2019-05-13T05:16:05.410Z,99.90
2019-05-13T05:19:07.059Z,99.90
2019-05-13T05:21:45.140Z,99.90
2019-05-13T05:25:07.913Z,99.90
2019-05-13T05:28:29.488Z,99.90
2019-05-13T05:31:33.504Z,99.90
2019-05-13T05:34:41.948Z,99.90
2019-05-13T05:37:47.745Z,99.90
2019-05-13T05:40:30.470Z,99.90
2019-05-13T05:42:52.793Z,99.90
2019-05-13T05:45:23.096Z,99.90
2019-05-13T05:47:54.413Z,99.90
2019-05-13T05:50:24.434Z,99.90
2019-05-13T05:52:56.419Z,99.90
2019-05-13T05:55:31.673Z,99.90
2019-05-13T05:58:03.137Z,99.90
2019-05-13T06:00:33.511Z,99.90
2019-05-13T06:03:05.060Z,99.90
2019-05-13T06:05:36.025Z,99.90
2019-05-13T06:08:06.616Z,99.90
2019-05-13T06:10:46.214Z,99.90
2019-05-13T06:13:08.238Z,99.90
2019-05-13T06:15:38.433Z,99.90
2019-05-13T06:18:08.217Z,99.90
2019-05-13T06:20:38.575Z,99.90
2019-05-13T06:23:08.649Z,99.90
2019-05-13T06:25:38.802Z,99.90
2019-05-13T06:28:08.618Z,99.90
2019-05-13T06:30:41.174Z,99.90
2019-05-13T06:33:12.039Z,99.90
2019-05-13T06:35:44.890Z,99.90
2019-05-13T06:38:14.082Z,99.90
2019-05-13T06:40:59.426Z,99.90
2019-05-13T06:43:16.745Z,99.90
2019-05-13T06:45:46.504Z,99.90
2019-05-13T06:48:16.309Z,99.90
2019-05-13T06:50:46.486Z,99.90
2019-05-13T06:53:16.716Z,99.90
2019-05-13T06:55:46.558Z,99.90
2019-05-13T06:58:16.432Z,99.90
2019-05-13T07:00:46.257Z,99.90
2019-05-13T07:03:16.057Z,99.90
2019-05-13T07:05:45.941Z,99.90
2019-05-13T07:08:16.065Z,99.90
2019-05-13T07:10:45.869Z,99.90
2019-05-13T07:13:15.989Z,99.90
2019-05-13T07:15:45.977Z,99.90
2019-05-13T07:18:16.461Z,99.90
2019-05-13T07:20:46.560Z,99.90
2019-05-13T07:23:16.742Z,99.90
2019-05-13T07:25:46.554Z,99.90
2019-05-13T07:28:16.581Z,99.90
2019-05-13T07:30:46.790Z,99.90
2019-05-13T07:33:16.684Z,99.90
2019-05-13T07:35:56.669Z,99.90
2019-05-13T07:38:22.204Z,99.90
2019-05-13T07:41:01.343Z,99.90
2019-05-13T07:43:31.999Z,99.90
2019-05-13T07:46:02.549Z,99.90
2019-05-13T07:48:32.450Z,99.90
2019-05-13T07:51:04.471Z,99.90
2019-05-13T07:53:34.237Z,99.90
2019-05-13T07:56:04.313Z,99.90
2019-05-13T07:58:37.371Z,99.90
2019-05-13T08:01:06.026Z,99.90
2019-05-13T08:03:35.914Z,99.90
2019-05-13T08:06:05.844Z,99.90
2019-05-13T08:08:35.729Z,99.90
2019-05-13T08:11:05.892Z,99.90
2019-05-13T08:13:35.999Z,99.90
2019-05-13T08:16:06.313Z,99.90
2019-05-13T08:18:36.190Z,99.90
2019-05-13T08:21:06.111Z,99.90
2019-05-13T08:23:36.160Z,99.90
2019-05-13T08:26:06.079Z,98.70
2019-05-13T08:28:36.286Z,97.20
2019-05-13T08:31:06.305Z,97.10
2019-05-13T08:33:38.588Z,93.00
2019-05-13T08:36:08.455Z,92.30
2019-05-13T08:38:38.671Z,91.60
2019-05-13T08:41:09.819Z,89.20
2019-05-13T08:43:41.909Z,87.50
2019-05-13T08:46:12.483Z,90.00
2019-05-13T08:48:42.961Z,90.00
2019-05-13T08:51:21.924Z,89.60
2019-05-13T08:53:51.632Z,80.90
2019-05-13T08:56:21.955Z,81.70
2019-05-13T08:58:52.300Z,81.10
2019-05-13T09:01:22.811Z,80.20
2019-05-13T09:03:53.032Z,72.90
2019-05-13T09:06:22.967Z,76.20
2019-05-13T09:08:54.441Z,73.40
2019-05-13T09:11:24.651Z,71.70
2019-05-13T09:13:54.775Z,73.90
2019-05-13T09:16:24.615Z,77.10
2019-05-13T09:18:54.774Z,76.50
2019-05-13T09:21:24.710Z,73.60
2019-05-13T09:23:54.813Z,74.10
2019-05-13T09:26:24.891Z,72.40
2019-05-13T09:28:54.728Z,68.70
2019-05-13T09:31:24.606Z,67.60
2019-05-13T09:33:54.615Z,67.10
2019-05-13T09:36:24.440Z,70.40
2019-05-13T09:38:54.646Z,71.00
2019-05-13T09:41:24.612Z,67.00
2019-05-13T09:43:54.426Z,59.30
2019-05-13T09:46:24.553Z,62.70
2019-05-13T09:49:11.508Z,62.10
2019-05-13T09:51:25.992Z,62.30
2019-05-13T09:53:55.806Z,60.00
2019-05-13T09:56:25.863Z,58.20
2019-05-13T09:58:55.662Z,61.00
2019-05-13T10:01:34.659Z,58.90
2019-05-13T10:04:12.586Z,54.70
2019-05-13T10:06:42.878Z,54.40
2019-05-13T10:09:13.190Z,57.70
2019-05-13T10:11:42.999Z,59.60
2019-05-13T10:14:13.123Z,57.80
2019-05-13T10:16:43.315Z,54.20
2019-05-13T10:19:14.638Z,54.80
2019-05-13T10:21:44.606Z,55.90
2019-05-13T10:24:14.774Z,55.00
2019-05-13T10:26:45.462Z,55.00
2019-05-13T10:29:22.278Z,56.50
2019-05-13T10:31:52.869Z,55.30
2019-05-13T10:34:23.124Z,55.10
2019-05-13T10:36:53.579Z,52.20
2019-05-13T10:39:23.680Z,50.30
2019-05-13T10:41:57.891Z,55.00
2019-05-13T10:44:27.788Z,55.70
2019-05-13T10:46:57.660Z,51.80
2019-05-13T10:49:27.730Z,52.10
2019-05-13T10:51:57.572Z,51.00
2019-05-13T10:54:27.381Z,49.90
2019-05-13T10:56:59.795Z,49.90
2019-05-13T10:59:30.023Z,48.00
2019-05-13T11:02:02.176Z,46.80
2019-05-13T11:04:32.691Z,48.70
2019-05-13T11:07:03.318Z,49.20
2019-05-13T11:09:33.414Z,50.80
2019-05-13T11:12:04.588Z,48.40
2019-05-13T11:14:34.962Z,50.00
2019-05-13T11:17:05.178Z,48.90
2019-05-13T11:19:37.054Z,47.30
2019-05-13T11:22:06.759Z,50.80
2019-05-13T11:24:37.053Z,50.50
2019-05-13T11:27:07.208Z,49.70
2019-05-13T11:29:41.431Z,50.40
2019-05-13T11:32:12.930Z,48.80
2019-05-13T11:34:42.481Z,51.50
2019-05-13T11:37:12.736Z,50.10
2019-05-13T11:39:43.004Z,51.50
2019-05-13T11:42:13.825Z,49.40
2019-05-13T11:44:43.858Z,46.60
2019-05-13T11:47:13.945Z,47.80
2019-05-13T11:49:44.055Z,48.90
2019-05-13T11:52:13.916Z,50.80
2019-05-13T11:54:43.841Z,46.80
2019-05-13T11:57:13.790Z,45.90
2019-05-13T11:59:43.696Z,45.40
2019-05-13T12:02:14.141Z,48.10
2019-05-13T12:04:44.177Z,46.90
2019-05-13T12:07:14.618Z,43.70
2019-05-13T12:09:44.725Z,46.00
2019-05-13T12:12:14.752Z,45.20
2019-05-13T12:15:16.129Z,45.50
2019-05-13T12:17:21.821Z,47.50
2019-05-13T12:19:54.014Z,46.40
2019-05-13T12:22:23.069Z,46.20
2019-05-13T12:24:53.195Z,46.60
2019-05-13T12:27:23.615Z,43.60
2019-05-13T12:29:53.699Z,47.80
2019-05-13T12:32:23.961Z,48.20
2019-05-13T12:34:53.741Z,48.40
2019-05-13T12:37:23.508Z,46.60
2019-05-13T12:39:53.840Z,46.50
2019-05-13T12:42:23.916Z,47.20
2019-05-13T12:45:08.416Z,50.20
2019-05-13T12:47:26.781Z,49.50
2019-05-13T12:50:02.756Z,47.50
2019-05-13T12:52:32.559Z,46.00
2019-05-13T12:55:03.532Z,47.90
2019-05-13T12:57:33.613Z,47.00
2019-05-13T13:00:03.924Z,47.20
2019-05-13T13:02:35.007Z,47.40
2019-05-13T13:05:09.376Z,49.60
2019-05-13T13:07:41.201Z,46.90
2019-05-13T13:10:08.692Z,47.50
2019-05-13T13:12:41.931Z,47.80
2019-05-13T13:15:35.900Z,48.80
2019-05-13T13:17:47.832Z,48.40
2019-05-13T13:20:23.975Z,47.90
2019-05-13T13:22:53.973Z,50.10
2019-05-13T13:25:25.254Z,48.00
2019-05-13T13:28:10.703Z,49.50
2019-05-13T13:30:35.187Z,47.80
2019-05-13T13:33:03.081Z,47.40
2019-05-13T13:35:34.471Z,49.30
2019-05-13T13:38:04.756Z,49.20
2019-05-13T13:40:35.703Z,48.70
2019-05-13T13:43:06.014Z,48.70
2019-05-13T13:46:05.920Z,50.60
2019-05-13T13:48:07.822Z,48.20
2019-05-13T13:50:37.903Z,50.10
2019-05-13T13:53:07.851Z,48.90
2019-05-13T13:55:38.045Z,49.50
2019-05-13T13:58:08.052Z,51.00
2019-05-13T14:00:52.537Z,50.50
2019-05-13T14:03:12.482Z,49.80
2019-05-13T14:05:42.989Z,50.70
2019-05-13T14:08:13.341Z,51.40
2019-05-13T14:10:43.865Z,50.00
2019-05-13T14:13:13.831Z,49.10
2019-05-13T14:15:43.612Z,48.00
2019-05-13T14:18:13.585Z,48.20
2019-05-13T14:20:43.565Z,48.70
2019-05-13T14:23:13.770Z,50.40
2019-05-13T14:25:44.217Z,49.90
2019-05-13T14:28:17.683Z,48.80
2019-05-13T14:30:45.735Z,49.80
2019-05-13T14:33:15.991Z,48.30
2019-05-13T14:35:45.958Z,49.50
2019-05-13T14:38:17.790Z,49.70
2019-05-13T14:40:48.010Z,50.80
2019-05-13T14:43:18.576Z,51.90
2019-05-13T14:45:48.375Z,48.30
2019-05-13T14:48:18.240Z,50.60
2019-05-13T14:50:49.544Z,50.00
2019-05-13T14:53:21.428Z,51.30
2019-05-13T14:55:51.870Z,51.70
2019-05-13T14:58:21.968Z,52.10
2019-05-13T15:01:10.779Z,51.10
2019-05-13T15:03:23.855Z,51.40
2019-05-13T15:05:53.756Z,50.20
2019-05-13T15:08:25.913Z,51.20
2019-05-13T15:10:55.521Z,50.20
2019-05-13T15:13:25.614Z,51.00
2019-05-13T15:15:55.537Z,50.40
2019-05-13T15:18:25.482Z,50.00
2019-05-13T15:20:55.653Z,49.60
2019-05-13T15:23:25.573Z,51.10
2019-05-13T15:25:55.593Z,51.50
2019-05-13T15:28:31.623Z,50.20
2019-05-13T15:31:01.373Z,49.20
2019-05-13T15:33:32.653Z,50.10
2019-05-13T15:36:05.551Z,49.60
2019-05-13T15:38:35.413Z,50.90
2019-05-13T15:41:06.322Z,49.90
2019-05-13T15:43:37.069Z,50.70
2019-05-13T15:46:06.863Z,50.40
2019-05-13T15:48:36.716Z,51.10
2019-05-13T15:51:06.600Z,51.40
2019-05-13T15:53:36.410Z,50.40
2019-05-13T15:56:06.458Z,49.90
2019-05-13T15:58:40.396Z,49.60
2019-05-13T16:01:08.417Z,49.40
2019-05-13T16:03:38.328Z,49.80
2019-05-13T16:06:09.568Z,50.70
2019-05-13T16:08:43.302Z,50.60
2019-05-13T16:11:13.183Z,51.50
2019-05-13T16:13:45.031Z,52.90
2019-05-13T16:16:21.529Z,51.70
2019-05-13T16:18:51.515Z,52.00
2019-05-13T16:21:21.664Z,53.70
2019-05-13T16:23:52.076Z,52.60
2019-05-13T16:26:22.750Z,54.40
2019-05-13T16:28:52.951Z,53.00
2019-05-13T16:31:23.077Z,53.20
2019-05-13T16:33:53.001Z,54.90
2019-05-13T16:36:22.814Z,54.60
2019-05-13T16:38:52.962Z,53.10
2019-05-13T16:41:22.960Z,53.60
2019-05-13T16:43:52.794Z,52.90
2019-05-13T16:46:22.797Z,52.30
2019-05-13T16:48:53.061Z,53.10
2019-05-13T16:51:22.887Z,53.50
2019-05-13T16:53:52.694Z,55.30
2019-05-13T16:56:29.472Z,55.50
2019-05-13T16:58:54.307Z,55.70
2019-05-13T17:01:24.084Z,56.10
2019-05-13T17:03:58.116Z,57.20
2019-05-13T17:06:28.403Z,56.90
2019-05-13T17:08:58.329Z,57.80
2019-05-13T17:11:28.831Z,58.00
2019-05-13T17:13:59.384Z,57.00
2019-05-13T17:16:31.640Z,57.60
2019-05-13T17:19:01.597Z,56.70
2019-05-13T17:21:31.754Z,57.90
2019-05-13T17:24:01.965Z,58.70
2019-05-13T17:26:32.674Z,59.90
2019-05-13T17:29:02.986Z,59.80
2019-05-13T17:31:32.733Z,60.00
2019-05-13T17:34:03.002Z,60.50
2019-05-13T17:36:32.864Z,60.90
2019-05-13T17:39:03.494Z,61.30
2019-05-13T17:41:33.465Z,61.50
2019-05-13T17:44:03.488Z,61.10
2019-05-13T17:46:33.446Z,61.20
2019-05-13T17:49:03.515Z,61.10
2019-05-13T17:51:33.338Z,61.50
2019-05-13T17:54:03.188Z,61.50
2019-05-13T17:56:33.210Z,61.30
2019-05-13T17:59:03.155Z,61.80
2019-05-13T18:01:32.997Z,62.50
2019-05-13T18:04:03.237Z,62.50
2019-05-13T18:06:33.069Z,63.20
2019-05-13T18:09:04.008Z,63.00
2019-05-13T18:11:33.838Z,63.70
2019-05-13T18:14:04.340Z,62.60
2019-05-13T18:16:34.588Z,62.90
2019-05-13T18:19:04.505Z,63.50
2019-05-13T18:21:34.384Z,64.40
2019-05-13T18:24:04.747Z,65.30
2019-05-13T18:26:34.769Z,64.00
2019-05-13T18:29:04.717Z,64.40
2019-05-13T18:31:34.516Z,65.20
2019-05-13T18:34:04.786Z,64.80
2019-05-13T18:36:34.625Z,65.00
2019-05-13T18:39:06.884Z,65.10
2019-05-13T18:41:36.930Z,66.20
2019-05-13T18:44:06.779Z,66.50
2019-05-13T18:46:36.583Z,66.80
2019-05-13T18:49:06.574Z,67.80
2019-05-13T18:51:42.058Z,68.00
2019-05-13T18:54:11.885Z,67.50
2019-05-13T18:56:42.084Z,67.80
2019-05-13T18:59:12.490Z,69.10
2019-05-13T19:01:47.490Z,70.40
2019-05-13T19:04:17.356Z,70.20
2019-05-13T19:06:47.160Z,70.60
2019-05-13T19:09:17.428Z,72.20
2019-05-13T19:11:47.330Z,74.30
2019-05-13T19:14:17.117Z,76.10
2019-05-13T19:16:47.104Z,78.10
2019-05-13T19:19:56.261Z,81.20
2019-05-13T19:25:47.741Z,91.50
2019-05-13T19:28:17.751Z,95.20
2019-05-13T19:30:47.670Z,98.80
2019-05-13T19:33:17.468Z,99.90
2019-05-13T19:35:47.662Z,99.90
2019-05-13T19:38:17.429Z,99.90
2019-05-13T19:40:47.169Z,99.90
2019-05-13T19:43:17.050Z,99.90
2019-05-13T19:45:46.856Z,99.90
2019-05-13T19:48:16.661Z,99.90
2019-05-13T19:50:46.964Z,99.90
2019-05-13T19:53:16.853Z,99.90
2019-05-13T19:55:46.649Z,99.90
2019-05-13T19:58:16.745Z,99.90
2019-05-13T20:00:46.581Z,99.90
2019-05-13T20:03:16.399Z,99.90
2019-05-13T20:05:46.652Z,99.90
2019-05-13T20:08:16.428Z,99.90
2019-05-13T20:10:46.275Z,99.90
2019-05-13T20:13:16.246Z,99.90
2019-05-13T20:15:46.039Z,99.90
2019-05-13T20:18:15.856Z,99.90
2019-05-13T20:20:46.038Z,99.90
2019-05-13T20:23:15.849Z,99.90
2019-05-13T20:25:47.349Z,99.90
2019-05-13T20:28:17.292Z,99.90
2019-05-13T20:30:47.120Z,99.90
2019-05-13T20:33:16.948Z,99.90
2019-05-13T20:35:46.892Z,99.90
2019-05-13T20:38:16.962Z,99.90
2019-05-13T20:40:46.764Z,99.90
2019-05-13T20:43:16.700Z,99.90
2019-05-13T20:45:46.538Z,99.90
2019-05-13T20:48:16.713Z,99.90
2019-05-13T20:50:46.756Z,99.90
2019-05-13T20:53:16.565Z,99.90
2019-05-13T20:55:46.609Z,99.90
2019-05-13T20:58:16.649Z,99.90
2019-05-13T21:00:46.529Z,99.90
2019-05-13T21:03:17.233Z,99.90
2019-05-13T21:05:47.548Z,99.90
2019-05-13T21:08:17.464Z,99.90
2019-05-13T21:10:47.711Z,99.90
2019-05-13T21:13:17.826Z,99.90
2019-05-13T21:15:48.165Z,99.90
2019-05-13T21:18:18.136Z,99.90
2019-05-13T21:20:48.746Z,99.90
2019-05-13T21:23:18.715Z,99.90
2019-05-13T21:25:50.908Z,99.90
2019-05-13T21:28:22.099Z,99.90
2019-05-13T21:30:52.254Z,99.90
2019-05-13T21:33:22.323Z,99.90
2019-05-13T21:35:52.356Z,99.90
2019-05-13T21:38:22.429Z,99.90
2019-05-13T21:40:52.623Z,99.90
2019-05-13T21:43:22.692Z,99.90
2019-05-13T21:45:52.624Z,99.90
2019-05-13T21:48:22.498Z,99.90
2019-05-13T21:50:52.530Z,99.90
2019-05-13T21:53:24.508Z,99.90
2019-05-13T21:55:54.233Z,99.90
2019-05-13T21:58:24.448Z,99.90
2019-05-13T22:00:54.922Z,99.90
2019-05-13T22:03:24.909Z,99.90
2019-05-13T22:05:54.853Z,99.90
2019-05-13T22:08:24.946Z,99.90
2019-05-13T22:10:55.191Z,99.90
2019-05-13T22:13:25.110Z,99.90
2019-05-13T22:15:55.058Z,99.90
2019-05-13T22:18:24.977Z,99.90
2019-05-13T22:20:55.133Z,99.90
2019-05-13T22:23:25.349Z,99.90
2019-05-13T22:25:55.306Z,99.90
2019-05-13T22:28:25.212Z,99.90
2019-05-13T22:30:55.205Z,99.90
2019-05-13T22:33:25.234Z,99.90
2019-05-13T22:35:55.287Z,99.90
2019-05-13T22:38:25.099Z,99.90
2019-05-13T22:40:56.201Z,99.90
2019-05-13T22:43:26.252Z,99.90
2019-05-13T22:45:56.032Z,99.90
2019-05-13T22:48:25.868Z,99.90
2019-05-13T22:50:55.713Z,99.90
2019-05-13T22:53:25.561Z,99.90
2019-05-13T22:55:55.605Z,99.90
2019-05-13T22:58:25.528Z,99.90
2019-05-13T23:00:55.385Z,99.90
2019-05-13T23:03:25.466Z,99.90
2019-05-13T23:05:55.403Z,99.90
2019-05-13T23:08:25.172Z,99.90
2019-05-13T23:10:54.968Z,99.90
2019-05-13T23:13:25.183Z,99.90
2019-05-13T23:15:54.950Z,99.90
2019-05-13T23:18:24.726Z,99.90
2019-05-13T23:20:54.669Z,99.90
2019-05-13T23:23:24.415Z,99.90
2019-05-13T23:25:56.662Z,99.90
2019-05-13T23:28:25.628Z,99.90
2019-05-13T23:30:55.764Z,99.90
2019-05-13T23:33:25.530Z,99.90
2019-05-13T23:35:55.424Z,99.90
2019-05-13T23:38:25.173Z,99.90
2019-05-13T23:40:54.989Z,99.90
2019-05-13T23:43:24.810Z,99.90
2019-05-13T23:45:54.852Z,99.90
2019-05-13T23:48:24.612Z,99.90
2019-05-13T23:50:54.673Z,99.90
2019-05-13T23:53:24.590Z,99.90
2019-05-13T23:55:54.693Z,99.90
2019-05-13T23:58:24.544Z,99.90
